Time;durP1;ratioP1;P1;durP2;ratioP2;P2;SDS_P1;SDS_P2;PMS_P1;PMS_P2;Temp;Humidity;BMP_temperature;BMP_pressure;BME280_temperature;BME280_humidity;BME280_pressure;Samples;Min_cycle;Max_cycle;Signal;HPM_P1;HPM_P2
2023/01/18 00:00:51;;;;;;;11.65;6.85;;;;;;;;;;5098277;28;20069;-82
2023/01/18 00:03:17;;;;;;;11.52;7.05;;;;;;;;;;5099151;28;20030;-82
2023/01/18 00:05:42;;;;;;;10.40;6.38;;;;;;;;;;5096308;28;20418;-82
2023/01/18 00:08:17;;;;;;;11.80;6.82;;;;;;;;;;5094164;28;20035;-82
2023/01/18 00:10:43;;;;;;;10.23;6.40;;;;;;;;;;5099753;27;20023;-82
2023/01/18 00:13:09;;;;;;;12.50;6.50;;;;;;;;;;5098765;27;20024;-83
2023/01/18 00:15:36;;;;;;;11.77;6.45;;;;;;;;;;5093868;28;20093;-82
2023/01/18 00:18:02;;;;;;;11.77;7.03;;;;;;;;;;5099326;28;20084;-82
2023/01/18 00:20:28;;;;;;;12.38;6.93;;;;;;;;;;5105595;28;20098;-82
2023/01/18 00:22:54;;;;;;;14.05;7.22;;;;;;;;;;5091350;28;21229;-82
2023/01/18 00:25:22;;;;;;;11.55;6.63;;;;;;;;;;5093283;28;20472;-82
2023/01/18 00:27:52;;;;;;;13.00;6.40;;;;;;;;;;5093586;28;20038;-82
2023/01/18 00:30:21;;;;;;;11.55;7.03;;;;;;;;;;5092099;28;20118;-82
2023/01/18 00:32:47;;;;;;;11.90;6.65;;;;;;;;;;5091939;28;20027;-82
2023/01/18 00:35:14;;;;;;;13.57;7.22;;;;;;;;;;5094678;28;20387;-82
2023/01/18 00:37:40;;;;;;;12.35;6.68;;;;;;;;;;5096648;28;20016;-82
2023/01/18 00:40:06;;;;;;;11.98;6.95;;;;;;;;;;5097069;28;20024;-82
2023/01/18 00:45:16;;;;;;;12.45;6.32;;;;;;;;;;5092793;28;20042;-82
2023/01/18 00:47:41;;;;;;;10.77;6.10;;;;;;;;;;5095560;28;20027;-82
2023/01/18 00:50:07;;;;;;;10.57;6.47;;;;;;;;;;5093433;28;20098;-82
2023/01/18 00:52:33;;;;;;;10.75;6.75;;;;;;;;;;5099568;28;20039;-82
2023/01/18 00:55:00;;;;;;;14.93;6.85;;;;;;;;;;5094988;28;20024;-82
2023/01/18 00:57:25;;;;;;;10.32;6.10;;;;;;;;;;5104091;28;20111;-82
2023/01/18 00:59:51;;;;;;;9.25;6.03;;;;;;;;;;5097689;28;20098;-82
2023/01/18 01:02:16;;;;;;;12.93;6.40;;;;;;;;;;5087645;28;20035;-82
2023/01/18 01:07:25;;;;;;;10.25;6.18;;;;;;;;;;5095701;28;20043;-82
2023/01/18 01:09:50;;;;;;;9.80;6.10;;;;;;;;;;5093640;28;20033;-82
2023/01/18 01:26:12;;;;;;;9.10;5.22;;;;;;;;;;5093096;28;20050;-82
2023/01/18 01:28:40;;;;;;;9.93;6.20;;;;;;;;;;5095322;28;20115;-81
2023/01/18 01:31:09;;;;;;;10.43;6.00;;;;;;;;;;5101913;28;20024;-82
2023/01/18 01:33:35;;;;;;;10.20;5.97;;;;;;;;;;5088223;28;20038;-82
2023/01/18 01:36:04;;;;;;;9.48;5.15;;;;;;;;;;5092297;28;20027;-81
2023/01/18 01:38:33;;;;;;;11.48;6.03;;;;;;;;;;5092799;27;20123;-81
2023/01/18 01:41:20;;;;;;;9.45;5.80;;;;;;;;;;5093512;28;20106;-81
2023/01/18 01:43:51;;;;;;;10.23;5.63;;;;;;;;;;5101262;28;20107;-82
2023/01/18 01:46:26;;;;;;;11.77;6.20;;;;;;;;;;5104194;28;20523;-81
2023/01/18 01:49:13;;;;;;;11.45;6.40;;;;;;;;;;5097506;28;20737;-82
2023/01/18 01:51:41;;;;;;;11.75;6.55;;;;;;;;;;5092347;28;20030;-81
2023/01/18 01:54:32;;;;;;;10.40;6.25;;;;;;;;;;5094181;28;20480;-82
2023/01/18 01:57:09;;;;;;;9.70;6.13;;;;;;;;;;5058356;28;20046;-82
2023/01/18 01:59:41;;;;;;;10.23;6.20;;;;;;;;;;5098559;28;20024;-81
2023/01/18 02:02:08;;;;;;;9.05;5.80;;;;;;;;;;5093526;28;20723;-81
2023/01/18 02:04:34;;;;;;;10.95;6.10;;;;;;;;;;5098676;27;20035;-82
2023/01/18 02:06:59;;;;;;;9.00;5.78;;;;;;;;;;5089074;28;20035;-82
2023/01/18 02:09:25;;;;;;;13.73;5.90;;;;;;;;;;5093983;28;20023;-81
2023/01/18 02:11:52;;;;;;;10.75;5.88;;;;;;;;;;5093593;27;20020;-82
2023/01/18 02:14:21;;;;;;;9.43;6.00;;;;;;;;;;5093300;28;20483;-81
2023/01/18 02:17:18;;;;;;;10.85;5.97;;;;;;;;;;5097219;28;20034;-81
2023/01/18 02:19:58;;;;;;;11.73;5.65;;;;;;;;;;5092881;28;20043;-81
2023/01/18 02:23:01;;;;;;;9.95;6.03;;;;;;;;;;5096731;28;20676;-82
2023/01/18 02:26:00;;;;;;;10.32;5.95;;;;;;;;;;5100011;28;20050;-81
2023/01/18 02:28:32;;;;;;;10.25;5.70;;;;;;;;;;5100423;28;20479;-81
2023/01/18 02:31:05;;;;;;;8.55;5.45;;;;;;;;;;5097635;28;20031;-81
2023/01/18 02:33:45;;;;;;;10.50;5.97;;;;;;;;;;5090643;28;20032;-81
2023/01/18 02:36:23;;;;;;;10.70;5.53;;;;;;;;;;5100505;28;20484;-82
2023/01/18 02:38:54;;;;;;;9.70;5.45;;;;;;;;;;5091037;28;20691;-81
2023/01/18 02:47:31;;;;;;;9.27;5.43;;;;;;;;;;5093442;28;20126;-81
2023/01/18 02:49:56;;;;;;;8.73;5.50;;;;;;;;;;5091254;28;20085;-81
2023/01/18 02:52:48;;;;;;;9.35;5.57;;;;;;;;;;5098652;28;20028;-81
2023/01/18 02:55:26;;;;;;;11.18;5.65;;;;;;;;;;5098606;28;20023;-81
2023/01/18 02:57:59;;;;;;;7.78;4.97;;;;;;;;;;5094389;28;20028;-81
2023/01/18 03:00:26;;;;;;;12.02;5.18;;;;;;;;;;5088595;28;20032;-81
2023/01/18 03:02:54;;;;;;;10.15;5.72;;;;;;;;;;5083874;28;20423;-81
2023/01/18 03:05:23;;;;;;;10.25;5.68;;;;;;;;;;5091809;28;20028;-81
2023/01/18 03:08:13;;;;;;;10.40;5.40;;;;;;;;;;5090123;28;20039;-82
2023/01/18 03:11:03;;;;;;;8.63;5.50;;;;;;;;;;5099141;28;20161;-81
2023/01/18 03:13:52;;;;;;;8.48;5.03;;;;;;;;;;5089308;28;20032;-81
2023/01/18 03:16:22;;;;;;;9.77;4.90;;;;;;;;;;5093024;28;20487;-81
2023/01/18 03:18:59;;;;;;;10.25;5.93;;;;;;;;;;5091302;28;20048;-82
2023/01/18 03:21:47;;;;;;;10.55;5.07;;;;;;;;;;5094877;27;20475;-81
2023/01/18 03:24:15;;;;;;;9.48;4.95;;;;;;;;;;5101552;28;20543;-81
2023/01/18 03:26:52;;;;;;;9.13;5.15;;;;;;;;;;5098329;28;20369;-81
2023/01/18 03:35:10;;;;;;;11.40;5.83;;;;;;;;;;5098858;28;20103;-81
2023/01/18 03:37:39;;;;;;;9.35;4.93;;;;;;;;;;5100031;28;20656;-82
2023/01/18 03:40:15;;;;;;;11.05;5.18;;;;;;;;;;5093877;28;20468;-81
2023/01/18 03:43:04;;;;;;;8.65;5.30;;;;;;;;;;5096053;28;20092;-81
2023/01/18 03:45:33;;;;;;;8.80;5.10;;;;;;;;;;5084104;28;20043;-81
2023/01/18 03:48:00;;;;;;;11.05;5.45;;;;;;;;;;5095290;28;20027;-81
2023/01/18 03:50:53;;;;;;;9.80;4.82;;;;;;;;;;5098849;28;20074;-82
2023/01/18 03:53:46;;;;;;;9.57;4.97;;;;;;;;;;5091994;28;20034;-81
2023/01/18 03:56:18;;;;;;;7.65;4.65;;;;;;;;;;5083420;28;20046;-81
2023/01/18 03:58:44;;;;;;;8.30;4.80;;;;;;;;;;5101101;28;20364;-81
2023/01/18 04:01:10;;;;;;;13.50;5.85;;;;;;;;;;5093116;28;20027;-81
2023/01/18 04:03:36;;;;;;;12.00;5.20;;;;;;;;;;5092755;28;20028;-80
2023/01/18 04:06:04;;;;;;;9.48;5.00;;;;;;;;;;5098834;28;20034;-81
2023/01/18 04:08:29;;;;;;;8.88;5.15;;;;;;;;;;5093838;28;20815;-81
2023/01/18 04:10:55;;;;;;;10.63;5.65;;;;;;;;;;5103661;27;20046;-81
2023/01/18 04:13:20;;;;;;;8.40;4.85;;;;;;;;;;5095602;28;20028;-81
2023/01/18 04:15:46;;;;;;;10.25;5.80;;;;;;;;;;5086804;28;20372;-82
2023/01/18 04:18:11;;;;;;;9.20;5.55;;;;;;;;;;5101794;28;20090;-81
2023/01/18 04:20:36;;;;;;;8.57;4.95;;;;;;;;;;5093833;28;20023;-81
2023/01/18 04:23:02;;;;;;;8.77;4.82;;;;;;;;;;5099950;28;20024;-81
2023/01/18 04:25:28;;;;;;;9.82;4.88;;;;;;;;;;5097913;28;20111;-81
2023/01/18 04:27:53;;;;;;;10.18;5.40;;;;;;;;;;5096141;28;20073;-81
2023/01/18 04:30:18;;;;;;;9.75;5.45;;;;;;;;;;5097052;28;20019;-81
2023/01/18 04:32:45;;;;;;;10.50;4.97;;;;;;;;;;5093537;28;20032;-81
2023/01/18 04:35:11;;;;;;;7.57;4.70;;;;;;;;;;5097499;28;20410;-81
2023/01/18 04:37:37;;;;;;;10.40;5.60;;;;;;;;;;5096419;28;20028;-81
2023/01/18 04:40:03;;;;;;;9.20;5.40;;;;;;;;;;5100936;28;20031;-81
2023/01/18 04:42:29;;;;;;;9.07;5.22;;;;;;;;;;5104527;28;20066;-81
2023/01/18 04:44:54;;;;;;;7.97;4.47;;;;;;;;;;5099923;28;20531;-81
2023/01/18 04:47:20;;;;;;;7.40;4.97;;;;;;;;;;5105171;28;20114;-81
2023/01/18 04:49:45;;;;;;;8.85;5.30;;;;;;;;;;5099852;28;20023;-81
2023/01/18 04:52:11;;;;;;;10.07;5.03;;;;;;;;;;5101408;28;20020;-81
2023/01/18 04:54:36;;;;;;;11.05;5.47;;;;;;;;;;5099355;28;20027;-80
2023/01/18 04:57:01;;;;;;;7.85;4.72;;;;;;;;;;5101369;28;20073;-81
2023/01/18 04:59:27;;;;;;;7.38;4.18;;;;;;;;;;5093951;28;20027;-81
2023/01/18 05:01:53;;;;;;;10.95;5.18;;;;;;;;;;5090145;28;20015;-81
2023/01/18 05:04:18;;;;;;;7.53;4.40;;;;;;;;;;5097571;28;20034;-80
2023/01/18 05:06:44;;;;;;;7.10;4.50;;;;;;;;;;5094155;28;20068;-81
2023/01/18 05:09:10;;;;;;;7.85;4.75;;;;;;;;;;5093486;28;20035;-81
2023/01/18 05:11:35;;;;;;;6.55;4.32;;;;;;;;;;5095383;27;20076;-81
2023/01/18 05:14:01;;;;;;;8.63;5.28;;;;;;;;;;5096629;28;20024;-80
2023/01/18 05:16:26;;;;;;;11.93;5.40;;;;;;;;;;5094251;28;20038;-80
2023/01/18 05:18:52;;;;;;;10.57;5.03;;;;;;;;;;5095948;28;20062;-81
2023/01/18 05:21:18;;;;;;;8.35;4.53;;;;;;;;;;5097361;28;20020;-80
2023/01/18 05:23:44;;;;;;;8.32;4.68;;;;;;;;;;5090599;28;20031;-81
2023/01/18 05:26:18;;;;;;;11.10;5.15;;;;;;;;;;5091887;28;20016;-81
2023/01/18 05:28:44;;;;;;;9.13;5.28;;;;;;;;;;5101613;28;20448;-80
2023/01/18 05:31:11;;;;;;;10.85;4.97;;;;;;;;;;5090244;28;20049;-81
2023/01/18 05:33:36;;;;;;;8.07;4.72;;;;;;;;;;5100581;28;20064;-81
2023/01/18 05:36:02;;;;;;;11.10;5.22;;;;;;;;;;5093270;28;20028;-81
2023/01/18 05:38:27;;;;;;;9.18;4.88;;;;;;;;;;5095099;27;20547;-80
2023/01/18 05:40:53;;;;;;;8.50;4.47;;;;;;;;;;5091476;28;20093;-81
2023/01/18 05:43:21;;;;;;;8.52;4.85;;;;;;;;;;5099409;28;20024;-81
2023/01/18 05:45:47;;;;;;;12.75;5.28;;;;;;;;;;5097559;28;20079;-81
2023/01/18 05:48:13;;;;;;;8.05;4.90;;;;;;;;;;5095597;28;20035;-80
2023/01/18 05:50:43;;;;;;;8.45;5.43;;;;;;;;;;5096735;28;20077;-81
2023/01/18 05:53:09;;;;;;;9.80;4.78;;;;;;;;;;5107396;28;20374;-80
2023/01/18 05:55:35;;;;;;;9.38;5.10;;;;;;;;;;5097622;28;20684;-81
2023/01/18 05:58:00;;;;;;;9.55;5.38;;;;;;;;;;5099483;28;20115;-81
2023/01/18 06:00:26;;;;;;;7.90;4.90;;;;;;;;;;5096595;28;20122;-81
2023/01/18 06:02:52;;;;;;;8.95;4.90;;;;;;;;;;5092660;28;20124;-81
2023/01/18 06:05:20;;;;;;;10.05;5.20;;;;;;;;;;5093444;28;20036;-80
2023/01/18 06:07:46;;;;;;;9.85;5.45;;;;;;;;;;5098918;28;20023;-81
2023/01/18 06:10:12;;;;;;;11.10;5.20;;;;;;;;;;5100809;28;20032;-80
2023/01/18 06:12:38;;;;;;;11.35;5.32;;;;;;;;;;5092525;28;20084;-80
2023/01/18 06:15:03;;;;;;;9.40;5.15;;;;;;;;;;5095989;28;20032;-80
2023/01/18 06:17:30;;;;;;;10.60;5.57;;;;;;;;;;5092603;28;20039;-81
2023/01/18 06:19:56;;;;;;;9.40;5.25;;;;;;;;;;5092686;28;20027;-81
2023/01/18 06:22:21;;;;;;;10.23;5.45;;;;;;;;;;5091131;28;20028;-80
2023/01/18 06:24:47;;;;;;;10.30;5.70;;;;;;;;;;5091413;28;20038;-81
2023/01/18 06:27:12;;;;;;;9.27;5.45;;;;;;;;;;5092490;28;20507;-80
2023/01/18 06:29:38;;;;;;;9.77;5.47;;;;;;;;;;5098951;28;20459;-80
2023/01/18 06:32:03;;;;;;;13.23;6.55;;;;;;;;;;5099540;28;20019;-80
2023/01/18 06:34:29;;;;;;;11.30;5.35;;;;;;;;;;5094594;28;20016;-81
2023/01/18 06:36:54;;;;;;;8.55;5.18;;;;;;;;;;5091460;28;20032;-81
2023/01/18 06:39:19;;;;;;;10.85;5.93;;;;;;;;;;5084335;28;20559;-80
2023/01/18 06:41:45;;;;;;;14.18;6.32;;;;;;;;;;5092021;28;20030;-81
2023/01/18 06:44:10;;;;;;;11.65;5.60;;;;;;;;;;5092209;28;20077;-80
2023/01/18 06:46:36;;;;;;;9.00;5.22;;;;;;;;;;5089197;28;20102;-80
2023/01/18 06:49:01;;;;;;;12.50;5.13;;;;;;;;;;5092865;28;20035;-80
2023/01/18 06:51:27;;;;;;;14.52;6.07;;;;;;;;;;5086819;28;20495;-80
2023/01/18 06:53:52;;;;;;;11.10;6.20;;;;;;;;;;5082927;28;20020;-80
2023/01/18 06:56:17;;;;;;;10.48;6.10;;;;;;;;;;5093243;28;20030;-80
2023/01/18 06:58:43;;;;;;;11.45;6.80;;;;;;;;;;5090617;28;20028;-80
2023/01/18 07:01:09;;;;;;;9.85;5.78;;;;;;;;;;5093770;28;20151;-80
2023/01/18 07:03:34;;;;;;;12.63;6.35;;;;;;;;;;5090147;28;20487;-80
2023/01/18 07:06:01;;;;;;;11.75;6.72;;;;;;;;;;5092273;28;20625;-81
2023/01/18 07:08:31;;;;;;;12.68;7.18;;;;;;;;;;5091090;28;20035;-80
2023/01/18 07:10:58;;;;;;;10.68;5.57;;;;;;;;;;5094690;28;20028;-80
2023/01/18 07:13:24;;;;;;;10.52;5.90;;;;;;;;;;5091597;28;20028;-80
2023/01/18 07:16:01;;;;;;;8.98;5.97;;;;;;;;;;5091202;28;20028;-81
2023/01/18 07:18:28;;;;;;;11.68;6.53;;;;;;;;;;5090211;28;20030;-80
2023/01/18 07:21:08;;;;;;;11.85;6.05;;;;;;;;;;5092366;28;20031;-80
2023/01/18 07:23:36;;;;;;;12.43;6.40;;;;;;;;;;5092077;28;20023;-80
2023/01/18 07:26:02;;;;;;;13.40;6.78;;;;;;;;;;5097948;28;20036;-80
2023/01/18 07:28:29;;;;;;;10.57;6.65;;;;;;;;;;5099439;28;20080;-80
2023/01/18 07:30:54;;;;;;;11.70;6.32;;;;;;;;;;5093963;28;20032;-80
2023/01/18 07:33:19;;;;;;;13.38;7.10;;;;;;;;;;5090962;28;20111;-80
2023/01/18 07:35:45;;;;;;;12.18;6.78;;;;;;;;;;5082985;28;20032;-80
2023/01/18 07:38:10;;;;;;;11.45;6.95;;;;;;;;;;5079797;28;20031;-80
2023/01/18 07:40:35;;;;;;;13.80;7.10;;;;;;;;;;5085036;28;20020;-80
2023/01/18 07:43:01;;;;;;;10.88;6.65;;;;;;;;;;5092696;28;20035;-80
2023/01/18 07:45:27;;;;;;;14.40;7.15;;;;;;;;;;5083566;28;20039;-80
2023/01/18 07:47:53;;;;;;;13.77;6.93;;;;;;;;;;5088363;28;20028;-79
2023/01/18 07:50:19;;;;;;;14.70;7.32;;;;;;;;;;5088725;28;20107;-79
2023/01/18 07:52:44;;;;;;;13.13;6.85;;;;;;;;;;5088756;28;20509;-80
2023/01/18 07:55:10;;;;;;;13.38;6.60;;;;;;;;;;5090476;28;20032;-79
2023/01/18 07:57:35;;;;;;;11.43;6.70;;;;;;;;;;5107575;28;20039;-79
2023/01/18 08:00:01;;;;;;;12.63;6.65;;;;;;;;;;5097696;28;20360;-79
2023/01/18 08:02:26;;;;;;;12.18;7.15;;;;;;;;;;5100968;28;20629;-79
2023/01/18 08:04:52;;;;;;;12.50;6.53;;;;;;;;;;5094424;28;20027;-79
2023/01/18 08:07:17;;;;;;;13.60;7.00;;;;;;;;;;5099837;28;20125;-79
2023/01/18 08:09:43;;;;;;;11.70;6.85;;;;;;;;;;5094974;28;20040;-79
2023/01/18 08:12:12;;;;;;;17.10;7.90;;;;;;;;;;5099735;27;20031;-79
2023/01/18 08:14:38;;;;;;;13.43;6.63;;;;;;;;;;5101076;28;20035;-79
2023/01/18 08:17:05;;;;;;;12.90;7.03;;;;;;;;;;5102827;28;20089;-79
2023/01/18 08:19:30;;;;;;;16.40;8.27;;;;;;;;;;5100616;28;20115;-79
2023/01/18 08:21:56;;;;;;;12.57;7.20;;;;;;;;;;5095960;28;20451;-79
2023/01/18 08:24:21;;;;;;;14.00;7.43;;;;;;;;;;5093592;28;20489;-79
2023/01/18 08:26:47;;;;;;;14.27;7.68;;;;;;;;;;5098778;28;20055;-78
2023/01/18 08:29:12;;;;;;;17.30;8.43;;;;;;;;;;5100354;28;20020;-79
2023/01/18 08:31:38;;;;;;;11.15;7.20;;;;;;;;;;5095586;28;20077;-79
2023/01/18 08:34:04;;;;;;;13.98;8.00;;;;;;;;;;5099591;28;20089;-79
2023/01/18 08:36:30;;;;;;;14.55;7.88;;;;;;;;;;5093387;28;20031;-79
2023/01/18 08:38:56;;;;;;;14.50;7.97;;;;;;;;;;5101701;28;20437;-79
2023/01/18 08:41:27;;;;;;;13.23;7.57;;;;;;;;;;5089154;28;20028;-79
2023/01/18 08:43:56;;;;;;;12.73;7.07;;;;;;;;;;5096292;28;20067;-79
2023/01/18 08:46:22;;;;;;;15.75;7.65;;;;;;;;;;5096645;28;20036;-79
2023/01/18 08:48:53;;;;;;;14.55;7.85;;;;;;;;;;5080694;28;20036;-78
2023/01/18 08:51:20;;;;;;;11.60;7.25;;;;;;;;;;5098017;28;20772;-79
2023/01/18 08:53:46;;;;;;;15.02;8.25;;;;;;;;;;5097672;28;20028;-79
2023/01/18 08:56:11;;;;;;;17.02;8.30;;;;;;;;;;5098925;28;20024;-78
2023/01/18 08:58:37;;;;;;;14.02;8.18;;;;;;;;;;5097219;28;20038;-80
2023/01/18 09:01:07;;;;;;;14.73;8.30;;;;;;;;;;5096840;28;20580;-79
2023/01/18 09:03:34;;;;;;;12.27;7.43;;;;;;;;;;5100555;28;20869;-79
2023/01/18 09:06:00;;;;;;;16.88;8.55;;;;;;;;;;5089398;28;20024;-78
2023/01/18 09:08:26;;;;;;;14.55;8.30;;;;;;;;;;5087115;28;20384;-78
2023/01/18 09:10:52;;;;;;;13.38;8.38;;;;;;;;;;5101418;27;20080;-78
2023/01/18 09:13:17;;;;;;;12.30;7.85;;;;;;;;;;5099488;28;20035;-78
2023/01/18 09:15:45;;;;;;;12.23;7.63;;;;;;;;;;5096367;28;20032;-78
2023/01/18 09:18:11;;;;;;;13.43;7.72;;;;;;;;;;5093932;28;20035;-78
2023/01/18 09:20:37;;;;;;;14.38;7.80;;;;;;;;;;5103767;28;20027;-78
2023/01/18 09:23:07;;;;;;;11.60;7.22;;;;;;;;;;5098465;28;20031;-79
2023/01/18 09:25:35;;;;;;;12.80;7.28;;;;;;;;;;5100155;28;20026;-78
2023/01/18 09:28:01;;;;;;;16.02;8.38;;;;;;;;;;5096121;28;20027;-78
2023/01/18 09:30:27;;;;;;;14.57;8.68;;;;;;;;;;5100935;28;20031;-79
2023/01/18 09:32:53;;;;;;;14.20;7.78;;;;;;;;;;5096168;28;20073;-79
2023/01/18 09:35:19;;;;;;;13.45;7.68;;;;;;;;;;5093855;28;20467;-78
2023/01/18 09:37:44;;;;;;;14.13;7.88;;;;;;;;;;5100290;28;20383;-78
2023/01/18 09:40:18;;;;;;;17.42;8.00;;;;;;;;;;5089539;28;20028;-78
2023/01/18 09:42:44;;;;;;;14.65;7.57;;;;;;;;;;5093813;28;20020;-78
2023/01/18 09:45:30;;;;;;;13.32;8.35;;;;;;;;;;5093540;28;20032;-78
2023/01/18 09:48:10;;;;;;;14.30;8.43;;;;;;;;;;5089535;28;20501;-78
2023/01/18 09:50:43;;;;;;;12.57;7.85;;;;;;;;;;5094958;28;20488;-78
2023/01/18 09:53:22;;;;;;;14.77;8.27;;;;;;;;;;5098246;28;20028;-78
2023/01/18 09:55:47;;;;;;;12.30;7.90;;;;;;;;;;5095170;28;20074;-79
2023/01/18 09:58:19;;;;;;;14.07;7.68;;;;;;;;;;5091425;28;20455;-78
2023/01/18 10:00:47;;;;;;;12.25;7.45;;;;;;;;;;5091079;28;20032;-78
2023/01/18 10:04:05;;;;;;;13.32;7.97;;;;;;;;;;5092767;28;20551;-78
2023/01/18 10:06:49;;;;;;;13.82;7.65;;;;;;;;;;5088154;28;20032;-79
2023/01/18 10:09:41;;;;;;;11.43;7.35;;;;;;;;;;5097560;28;20031;-78
2023/01/18 10:12:30;;;;;;;15.55;7.97;;;;;;;;;;5091085;27;20032;-78
2023/01/18 10:15:21;;;;;;;14.07;7.47;;;;;;;;;;5094953;28;20502;-78
2023/01/18 10:17:48;;;;;;;11.48;6.63;;;;;;;;;;5091072;28;20511;-79
2023/01/18 10:20:35;;;;;;;13.00;7.50;;;;;;;;;;5095789;28;20030;-78
2023/01/18 10:23:14;;;;;;;13.90;7.97;;;;;;;;;;5094213;28;20024;-80
2023/01/18 10:25:40;;;;;;;14.02;7.40;;;;;;;;;;5095527;28;20012;-79
2023/01/18 10:28:33;;;;;;;14.18;7.68;;;;;;;;;;5093949;28;20057;-79
2023/01/18 10:31:19;;;;;;;13.73;7.10;;;;;;;;;;5089817;28;20426;-79
2023/01/18 10:33:47;;;;;;;10.98;6.75;;;;;;;;;;5090296;28;20538;-79
2023/01/18 10:36:31;;;;;;;10.23;5.50;;;;;;;;;;5094420;28;20103;-79
2023/01/18 10:38:59;;;;;;;14.27;7.35;;;;;;;;;;5094002;28;20563;-79
2023/01/18 10:41:31;;;;;;;11.57;7.60;;;;;;;;;;5096335;28;20062;-80
2023/01/18 10:43:56;;;;;;;13.63;7.03;;;;;;;;;;5075097;28;20484;-79
2023/01/18 10:46:21;;;;;;;11.55;7.05;;;;;;;;;;5097719;28;20077;-79
2023/01/18 10:48:49;;;;;;;9.57;5.88;;;;;;;;;;5101711;28;20061;-80
2023/01/18 10:51:28;;;;;;;12.10;7.15;;;;;;;;;;5098545;28;20059;-80
2023/01/18 10:53:53;;;;;;;11.35;6.82;;;;;;;;;;5097843;28;20034;-80
2023/01/18 10:56:24;;;;;;;13.45;6.90;;;;;;;;;;5100811;28;20118;-80
2023/01/18 10:58:49;;;;;;;12.77;6.45;;;;;;;;;;5089627;28;20132;-80
2023/01/18 11:01:24;;;;;;;11.48;6.68;;;;;;;;;;5100257;28;20136;-79
2023/01/18 11:04:20;;;;;;;12.32;6.65;;;;;;;;;;5091242;28;20139;-80
2023/01/18 11:06:47;;;;;;;9.05;5.70;;;;;;;;;;5084482;28;20268;-80
2023/01/18 11:09:42;;;;;;;10.10;6.18;;;;;;;;;;5091722;28;20024;-80
2023/01/18 11:12:35;;;;;;;6.85;4.38;;;;;;;;;;5094905;28;20024;-81
2023/01/18 11:15:13;;;;;;;9.90;5.82;;;;;;;;;;5087998;28;20545;-80
2023/01/18 11:17:42;;;;;;;10.13;6.05;;;;;;;;;;5096613;28;20035;-80
2023/01/18 11:20:15;;;;;;;10.55;6.38;;;;;;;;;;5097595;28;20230;-81
2023/01/18 11:23:16;;;;;;;11.85;6.45;;;;;;;;;;5096502;28;20024;-81
2023/01/18 11:25:59;;;;;;;11.20;6.53;;;;;;;;;;5080391;28;20038;-80
2023/01/18 11:28:43;;;;;;;10.65;5.97;;;;;;;;;;5093685;28;20115;-80
2023/01/18 11:31:14;;;;;;;11.43;6.25;;;;;;;;;;5099169;28;20069;-81
2023/01/18 11:33:55;;;;;;;10.75;6.53;;;;;;;;;;5090858;28;20475;-81
2023/01/18 11:36:35;;;;;;;10.10;6.15;;;;;;;;;;5090201;28;20030;-81
2023/01/18 11:39:33;;;;;;;10.95;7.03;;;;;;;;;;5087233;28;20060;-81
2023/01/18 11:42:12;;;;;;;9.95;6.07;;;;;;;;;;5097928;28;20387;-81
2023/01/18 11:44:47;;;;;;;12.15;6.70;;;;;;;;;;5102307;28;20023;-81
2023/01/18 11:47:20;;;;;;;11.23;5.97;;;;;;;;;;5094866;28;20028;-81
2023/01/18 11:50:07;;;;;;;12.15;7.38;;;;;;;;;;5095883;28;20027;-81
2023/01/18 11:52:52;;;;;;;11.25;6.72;;;;;;;;;;5096901;28;20504;-81
2023/01/18 11:55:46;;;;;;;9.20;6.10;;;;;;;;;;5096176;28;20032;-81
2023/01/18 11:58:41;;;;;;;9.63;6.50;;;;;;;;;;5105858;28;20039;-81
2023/01/18 12:01:20;;;;;;;9.05;5.72;;;;;;;;;;5090025;28;20026;-81
2023/01/18 12:03:58;;;;;;;9.75;5.78;;;;;;;;;;5104412;28;20641;-81
2023/01/18 12:06:53;;;;;;;10.55;7.10;;;;;;;;;;5101510;28;20032;-81
2023/01/18 12:09:55;;;;;;;9.98;6.05;;;;;;;;;;5096289;28;20158;-81
2023/01/18 12:12:44;;;;;;;8.40;5.68;;;;;;;;;;5053693;28;20037;-81
2023/01/18 12:15:19;;;;;;;9.20;5.57;;;;;;;;;;5095041;28;20036;-81
2023/01/18 12:17:51;;;;;;;9.30;6.10;;;;;;;;;;5101413;28;20068;-82
2023/01/18 12:20:28;;;;;;;10.25;6.22;;;;;;;;;;5106198;28;20028;-81
2023/01/18 12:23:10;;;;;;;12.25;6.47;;;;;;;;;;5093556;28;20365;-82
2023/01/18 12:26:07;;;;;;;10.40;6.20;;;;;;;;;;5101958;28;20032;-82
2023/01/18 12:29:11;;;;;;;11.05;6.60;;;;;;;;;;5097921;28;20524;-82
2023/01/18 12:32:19;;;;;;;9.63;6.13;;;;;;;;;;5091592;28;20035;-82
2023/01/18 12:35:13;;;;;;;8.65;5.22;;;;;;;;;;5028318;28;20041;-81
2023/01/18 12:38:16;;;;;;;11.98;5.53;;;;;;;;;;5021617;28;20036;-82
2023/01/18 12:40:41;;;;;;;9.93;5.85;;;;;;;;;;5100713;27;20388;-82
2023/01/18 12:43:11;;;;;;;8.15;4.80;;;;;;;;;;5096504;28;20035;-81
2023/01/18 12:46:03;;;;;;;6.82;3.67;;;;;;;;;;5101790;28;20103;-81
2023/01/18 12:48:47;;;;;;;7.82;4.18;;;;;;;;;;5112412;28;20028;-81
2023/01/18 12:51:17;;;;;;;7.80;4.25;;;;;;;;;;5094468;28;20032;-82
2023/01/18 12:53:58;;;;;;;12.65;4.72;;;;;;;;;;5099109;27;20480;-82
2023/01/18 12:56:39;;;;;;;10.10;4.55;;;;;;;;;;5095434;28;20445;-82
2023/01/18 12:59:10;;;;;;;7.20;3.70;;;;;;;;;;5100352;28;20034;-82
2023/01/18 13:01:43;;;;;;;5.93;3.38;;;;;;;;;;5098150;28;20035;-82
2023/01/18 13:04:19;;;;;;;5.97;3.70;;;;;;;;;;5094890;28;20132;-82
2023/01/18 13:06:49;;;;;;;6.05;3.70;;;;;;;;;;5096023;28;20032;-82
2023/01/18 13:09:25;;;;;;;7.57;3.72;;;;;;;;;;5096627;28;20174;-82
2023/01/18 13:11:51;;;;;;;5.43;3.03;;;;;;;;;;5104569;27;20031;-82
2023/01/18 13:14:41;;;;;;;7.22;2.97;;;;;;;;;;5095285;28;20020;-82
2023/01/18 13:17:13;;;;;;;6.55;3.22;;;;;;;;;;5084659;28;20058;-82
2023/01/18 13:19:59;;;;;;;6.88;3.05;;;;;;;;;;5099873;28;20023;-82
2023/01/18 13:22:52;;;;;;;6.18;2.90;;;;;;;;;;5094416;28;20028;-82
2023/01/18 13:25:26;;;;;;;5.38;2.50;;;;;;;;;;5098535;28;20027;-82
2023/01/18 13:28:19;;;;;;;7.35;3.53;;;;;;;;;;5097377;28;20042;-82
2023/01/18 13:30:48;;;;;;;5.40;2.65;;;;;;;;;;5091670;28;20158;-82
2023/01/18 13:33:13;;;;;;;4.85;2.63;;;;;;;;;;5104614;28;20040;-82
2023/01/18 13:35:49;;;;;;;4.97;2.42;;;;;;;;;;5095768;28;20042;-82
2023/01/18 13:38:20;;;;;;;8.02;2.90;;;;;;;;;;5097423;28;20055;-82
2023/01/18 13:41:02;;;;;;;4.35;2.50;;;;;;;;;;5095336;28;20019;-82
2023/01/18 13:43:37;;;;;;;5.97;2.75;;;;;;;;;;5096319;28;20031;-81
2023/01/18 13:46:18;;;;;;;7.45;3.10;;;;;;;;;;5097011;28;20199;-82
2023/01/18 13:48:53;;;;;;;5.13;2.60;;;;;;;;;;5092879;28;20024;-82
2023/01/18 13:51:40;;;;;;;6.15;2.55;;;;;;;;;;5095224;28;20102;-82
2023/01/18 13:54:06;;;;;;;5.82;3.05;;;;;;;;;;5094811;28;20430;-82
2023/01/18 13:56:35;;;;;;;6.03;3.13;;;;;;;;;;5096509;28;20036;-82
2023/01/18 13:59:02;;;;;;;7.18;3.30;;;;;;;;;;5098382;28;20016;-82
2023/01/18 14:01:34;;;;;;;4.90;2.58;;;;;;;;;;5097877;28;20027;-82
2023/01/18 14:04:21;;;;;;;5.93;3.10;;;;;;;;;;5099240;28;20526;-82
2023/01/18 14:06:48;;;;;;;6.93;3.10;;;;;;;;;;5093565;28;20051;-82
2023/01/18 14:09:19;;;;;;;5.50;3.30;;;;;;;;;;5095186;28;20453;-82
2023/01/18 14:11:54;;;;;;;6.15;3.30;;;;;;;;;;5094496;27;20092;-82
2023/01/18 14:14:19;;;;;;;6.03;3.08;;;;;;;;;;5102747;28;20035;-82
2023/01/18 14:17:11;;;;;;;5.80;3.10;;;;;;;;;;5093892;28;20165;-82
2023/01/18 14:20:00;;;;;;;8.23;3.75;;;;;;;;;;5094100;28;20023;-82
2023/01/18 14:22:44;;;;;;;5.43;2.95;;;;;;;;;;5091279;28;20028;-82
2023/01/18 14:25:16;;;;;;;5.60;2.92;;;;;;;;;;5092344;28;20038;-82
2023/01/18 14:27:51;;;;;;;5.50;3.20;;;;;;;;;;5096058;28;20391;-82
2023/01/18 14:30:29;;;;;;;6.00;3.13;;;;;;;;;;5098201;28;20052;-82
2023/01/18 14:32:59;;;;;;;4.85;2.72;;;;;;;;;;5102757;28;20099;-82
2023/01/18 14:35:25;;;;;;;4.78;2.88;;;;;;;;;;5097448;28;20036;-82
2023/01/18 14:37:50;;;;;;;6.97;3.33;;;;;;;;;;5095017;28;20392;-82
2023/01/18 14:40:25;;;;;;;6.32;3.08;;;;;;;;;;5094174;28;20070;-83
2023/01/18 14:43:01;;;;;;;5.90;3.33;;;;;;;;;;5091333;28;20024;-82
2023/01/18 14:45:33;;;;;;;6.15;3.25;;;;;;;;;;5101981;28;20024;-82
2023/01/18 14:48:06;;;;;;;6.25;3.15;;;;;;;;;;5100270;28;20028;-82
2023/01/18 14:50:35;;;;;;;;;;;;;;;;;;5095207;28;20028;-83
2023/01/18 14:53:00;;;;;;;6.70;3.20;;;;;;;;;;5101521;28;20628;-82
2023/01/18 14:55:29;;;;;;;6.15;3.25;;;;;;;;;;5105063;28;20034;-81
2023/01/18 14:58:10;;;;;;;6.03;3.20;;;;;;;;;;5093849;28;20864;-82
2023/01/18 15:00:52;;;;;;;5.55;3.05;;;;;;;;;;5091313;28;20024;-82
2023/01/18 15:03:28;;;;;;;8.27;3.40;;;;;;;;;;5096483;28;20024;-82
2023/01/18 15:06:10;;;;;;;7.25;3.55;;;;;;;;;;5096378;28;20404;-82
2023/01/18 15:08:37;;;;;;;6.43;3.55;;;;;;;;;;5098189;28;20442;-82
2023/01/18 15:11:06;;;;;;;6.00;3.55;;;;;;;;;;5091535;28;20024;-82
2023/01/18 15:13:37;;;;;;;5.88;3.40;;;;;;;;;;5087114;28;20023;-82
2023/01/18 15:16:03;;;;;;;5.20;3.28;;;;;;;;;;5101231;28;20387;-82
2023/01/18 15:18:28;;;;;;;6.05;3.65;;;;;;;;;;5096984;28;20039;-82
2023/01/18 15:20:58;;;;;;;6.30;3.28;;;;;;;;;;5108202;28;20027;-82
2023/01/18 15:23:24;;;;;;;7.03;3.33;;;;;;;;;;5100181;28;20093;-82
2023/01/18 15:25:51;;;;;;;6.68;3.10;;;;;;;;;;5097110;28;20034;-83
2023/01/18 15:28:17;;;;;;;6.80;3.75;;;;;;;;;;5099318;28;20069;-82
2023/01/18 15:30:53;;;;;;;5.65;3.38;;;;;;;;;;5095840;28;20463;-82
2023/01/18 15:33:21;;;;;;;7.93;3.60;;;;;;;;;;5095756;28;20491;-82
2023/01/18 15:35:49;;;;;;;7.90;3.70;;;;;;;;;;5097364;28;20031;-82